Time;durP1;ratioP1;P1;durP2;ratioP2;P2;SDS_P1;SDS_P2;PMS_P1;PMS_P2;Temp;Humidity;BMP_temperature;BMP_pressure;BME280_temperature;BME280_humidity;BME280_pressure;Samples;Min_cycle;Max_cycle;Signal;HPM_P1;HPM_P2
2021/10/10 00:02:25;;;;;;;14.13;9.32;;;256.40;2252.80;;;;;;5069051;28;20028;-73
2021/10/10 00:04:50;;;;;;;17.38;9.85;;;256.30;2252.80;;;;;;5053106;28;20020;-73
2021/10/10 00:07:16;;;;;;;15.43;10.18;;;256.30;2252.80;;;;;;5074349;28;20471;-73
2021/10/10 00:09:42;;;;;;;15.63;10.48;;;256.30;2252.80;;;;;;5072239;28;20028;-73
2021/10/10 00:12:08;;;;;;;12.52;8.98;;;256.30;2252.80;;;;;;5066014;28;20661;-75
2021/10/10 00:14:34;;;;;;;15.35;9.77;;;256.30;2252.80;;;;;;5067187;28;20082;-74
2021/10/10 00:17:00;;;;;;;14.73;10.07;;;256.30;2252.80;;;;;;5066270;28;20064;-73
2021/10/10 00:19:25;;;;;;;17.02;10.13;;;256.20;2252.80;;;;;;5052984;28;20108;-73
2021/10/10 00:21:51;;;;;;;16.50;10.20;;;256.30;2252.80;;;;;;5070125;28;20535;-73
2021/10/10 00:24:17;;;;;;;15.70;10.35;;;256.30;2252.80;;;;;;5073138;28;20032;-73
2021/10/10 00:26:43;;;;;;;19.70;11.40;;;256.20;2252.80;;;;;;5075556;28;20040;-73
2021/10/10 00:29:08;;;;;;;13.25;10.18;;;256.20;2252.80;;;;;;5070632;28;20477;-74
2021/10/10 00:31:34;;;;;;;16.40;10.85;;;256.20;2252.80;;;;;;5076536;28;20032;-74
2021/10/10 00:34:00;;;;;;;17.38;10.88;;;256.20;2252.80;;;;;;5070620;28;20020;-74
2021/10/10 00:36:25;;;;;;;15.07;10.43;;;256.20;2252.80;;;;;;5072949;28;20370;-74
2021/10/10 00:38:51;;;;;;;18.15;12.27;;;256.20;2252.80;;;;;;5063043;28;20040;-73
2021/10/10 00:41:17;;;;;;;19.75;11.93;;;256.20;2252.80;;;;;;5091844;28;20092;-74
2021/10/10 00:43:43;;;;;;;19.33;12.43;;;256.20;2252.80;;;;;;5077080;28;20398;-74
2021/10/10 00:46:08;;;;;;;19.77;11.45;;;256.20;2252.80;;;;;;5078913;28;20043;-74
2021/10/10 00:48:34;;;;;;;20.52;11.70;;;256.20;2252.80;;;;;;5079922;28;20033;-73
2021/10/10 00:51:00;;;;;;;14.82;10.68;;;256.20;2252.80;;;;;;5085587;28;20055;-74
2021/10/10 00:53:26;;;;;;;14.70;10.10;;;256.20;2252.80;;;;;;5076648;28;20113;-73
2021/10/10 00:55:53;;;;;;;16.15;10.73;;;256.30;2252.80;;;;;;5076341;28;20036;-73
2021/10/10 00:58:24;;;;;;;15.85;11.13;;;256.30;2252.80;;;;;;5075221;28;20027;-73
2021/10/10 01:00:52;;;;;;;16.45;9.50;;;256.30;2252.80;;;;;;5076536;28;20494;-73
2021/10/10 01:03:18;;;;;;;15.13;10.18;;;256.20;2252.80;;;;;;5078751;28;20016;-73
2021/10/10 01:05:44;;;;;;;12.60;9.57;;;256.20;2252.80;;;;;;5067606;28;20040;-73
2021/10/10 01:08:13;;;;;;;15.05;9.43;;;256.20;2252.80;;;;;;5077783;28;20036;-74
2021/10/10 01:10:39;;;;;;;11.52;9.25;;;256.20;2252.80;;;;;;5076601;28;20024;-73
2021/10/10 01:13:05;;;;;;;11.63;9.73;;;256.20;2252.80;;;;;;5059067;28;20387;-74
2021/10/10 01:15:31;;;;;;;14.63;8.82;;;256.20;2252.80;;;;;;5067893;28;20051;-75
2021/10/10 01:17:57;;;;;;;15.32;9.43;;;256.20;2252.80;;;;;;5057127;28;20048;-74
2021/10/10 01:20:27;;;;;;;12.65;8.40;;;256.20;2252.80;;;;;;5069647;28;20016;-74
2021/10/10 01:22:54;;;;;;;11.13;7.82;;;256.20;2252.80;;;;;;5075292;28;20020;-73
2021/10/10 01:25:19;;;;;;;14.73;9.00;;;256.20;2252.80;;;;;;5078229;28;20060;-74
2021/10/10 01:27:45;;;;;;;14.98;8.48;;;256.20;2252.80;;;;;;5076926;28;20060;-74
2021/10/10 01:30:11;;;;;;;12.55;8.60;;;256.20;2252.80;;;;;;5059355;28;20045;-74
2021/10/10 01:32:37;;;;;;;14.07;8.63;;;256.10;2252.80;;;;;;5078614;28;20024;-74
2021/10/10 01:35:03;;;;;;;16.08;9.07;;;256.10;2252.80;;;;;;5074133;28;20506;-74
2021/10/10 01:37:29;;;;;;;15.85;8.52;;;256.10;2252.80;;;;;;5080129;28;20127;-75
2021/10/10 01:39:55;;;;;;;15.57;10.35;;;256.10;2252.80;;;;;;5077079;28;20052;-76
2021/10/10 01:42:20;;;;;;;15.20;8.85;;;256.20;2252.80;;;;;;5085155;28;20081;-74
2021/10/10 01:44:46;;;;;;;13.15;8.43;;;256.10;2252.80;;;;;;5063547;28;20505;-75
2021/10/10 01:47:12;;;;;;;13.40;8.32;;;256.10;2252.80;;;;;;5078005;28;20039;-75
2021/10/10 01:49:38;;;;;;;17.67;9.60;;;256.10;2252.80;;;;;;5076967;28;20157;-75
2021/10/10 01:52:05;;;;;;;9.77;7.60;;;256.00;2252.80;;;;;;5062948;28;20031;-76
2021/10/10 01:54:31;;;;;;;14.10;9.32;;;256.10;2252.80;;;;;;5076062;28;20028;-74
2021/10/10 01:56:56;;;;;;;11.80;7.90;;;256.10;2252.80;;;;;;5053091;28;20035;-74
2021/10/10 01:59:22;;;;;;;10.15;7.95;;;256.10;2252.80;;;;;;5084608;28;20108;-75
2021/10/10 02:01:48;;;;;;;11.23;7.82;;;256.10;2252.80;;;;;;5074114;28;20032;-76
2021/10/10 02:04:14;;;;;;;12.45;8.18;;;256.10;2252.80;;;;;;5063806;28;20037;-75
2021/10/10 02:06:40;;;;;;;12.07;7.03;;;256.10;2252.80;;;;;;5086037;28;20478;-74
2021/10/10 02:09:06;;;;;;;9.68;6.93;;;256.10;2252.80;;;;;;5077061;28;20041;-75
2021/10/10 02:11:31;;;;;;;11.63;7.15;;;256.10;2252.80;;;;;;5070134;28;20036;-75
2021/10/10 02:13:57;;;;;;;9.63;6.50;;;256.10;2252.80;;;;;;5079504;28;20035;-75
2021/10/10 02:16:23;;;;;;;11.88;6.43;;;256.10;2252.80;;;;;;5086479;28;20120;-75
2021/10/10 02:18:49;;;;;;;13.30;7.18;;;256.10;2252.80;;;;;;5081479;28;20063;-75
2021/10/10 02:21:15;;;;;;;10.35;6.75;;;256.10;2252.80;;;;;;5067039;28;20537;-75
2021/10/10 02:23:40;;;;;;;14.05;7.55;;;256.10;2252.80;;;;;;5073479;28;20028;-76
2021/10/10 02:26:06;;;;;;;10.65;6.85;;;256.00;2252.80;;;;;;5069819;28;20023;-76
2021/10/10 02:28:32;;;;;;;8.70;6.30;;;256.00;2252.80;;;;;;5076480;28;20021;-75
2021/10/10 02:30:58;;;;;;;9.73;6.53;;;256.00;2252.80;;;;;;5073416;28;20104;-75
2021/10/10 02:33:24;;;;;;;11.77;6.90;;;256.00;2252.80;;;;;;5072580;28;20052;-75
2021/10/10 02:35:49;;;;;;;11.50;7.65;;;256.00;2252.80;;;;;;5072850;28;20032;-76
2021/10/10 02:38:16;;;;;;;8.68;6.03;;;256.00;2252.80;;;;;;5072910;28;20564;-75
2021/10/10 02:40:41;;;;;;;11.60;7.43;;;256.00;2252.80;;;;;;5068618;28;20041;-75
2021/10/10 02:43:07;;;;;;;13.05;7.05;;;256.00;2252.80;;;;;;5054878;28;20016;-74
2021/10/10 02:45:33;;;;;;;12.65;7.43;;;256.00;2252.80;;;;;;5061483;28;20150;-75
2021/10/10 02:47:59;;;;;;;10.65;7.32;;;256.00;2252.80;;;;;;5054233;28;20490;-75
2021/10/10 02:50:25;;;;;;;10.10;7.05;;;256.00;2252.80;;;;;;5077170;28;20505;-75
2021/10/10 02:52:51;;;;;;;8.93;5.90;;;256.00;2252.80;;;;;;5078944;28;20028;-75
2021/10/10 02:55:16;;;;;;;11.70;7.40;;;256.00;2252.80;;;;;;5065694;28;20379;-75
2021/10/10 02:57:42;;;;;;;12.35;7.53;;;256.00;2252.80;;;;;;5082205;28;20081;-75
2021/10/10 03:00:09;;;;;;;13.52;7.50;;;256.10;2252.80;;;;;;5089279;28;20044;-75
2021/10/10 03:02:34;;;;;;;14.15;7.47;;;256.10;2252.80;;;;;;5079864;28;20036;-74
2021/10/10 03:05:00;;;;;;;9.75;6.88;;;256.10;2252.80;;;;;;5077838;28;20025;-74
2021/10/10 03:07:26;;;;;;;11.90;6.63;;;256.10;2252.80;;;;;;5061449;28;20048;-75
2021/10/10 03:09:51;;;;;;;15.30;7.30;;;256.10;2252.80;;;;;;5061320;28;20067;-74
2021/10/10 03:12:17;;;;;;;10.43;7.28;;;256.10;2252.80;;;;;;5060797;28;20024;-74
2021/10/10 03:14:43;;;;;;;18.65;8.18;;;256.10;2252.80;;;;;;5061721;28;20039;-75
2021/10/10 03:17:08;;;;;;;12.52;7.32;;;256.10;2252.80;;;;;;5082223;28;20131;-76
2021/10/10 03:19:34;;;;;;;15.50;8.93;;;256.10;2252.80;;;;;;5061836;28;20039;-76
2021/10/10 03:22:00;;;;;;;13.80;8.10;;;256.10;2252.80;;;;;;5086443;28;20044;-76
2021/10/10 03:24:26;;;;;;;10.60;7.22;;;256.10;2252.80;;;;;;5079265;28;20017;-76
2021/10/10 03:26:52;;;;;;;10.57;6.97;;;256.10;2252.80;;;;;;5083484;28;20386;-76
2021/10/10 03:29:17;;;;;;;9.77;6.63;;;256.10;2252.80;;;;;;5063685;28;20029;-76
2021/10/10 03:31:43;;;;;;;11.77;7.20;;;256.10;2252.80;;;;;;5065023;28;20483;-76
2021/10/10 03:34:09;;;;;;;9.40;6.90;;;256.10;2252.80;;;;;;5070422;28;20033;-77
2021/10/10 03:36:34;;;;;;;11.05;6.75;;;256.10;2252.80;;;;;;5071186;28;20032;-76
2021/10/10 03:39:00;;;;;;;9.82;6.63;;;256.10;2252.80;;;;;;5071994;28;20794;-77
2021/10/10 03:41:26;;;;;;;18.63;8.18;;;256.20;2252.80;;;;;;5053863;28;20646;-76
2021/10/10 03:43:52;;;;;;;10.23;6.90;;;256.20;2252.80;;;;;;5054262;28;20027;-77
2021/10/10 03:46:17;;;;;;;10.88;6.95;;;256.20;2252.80;;;;;;5064001;28;20040;-76
2021/10/10 03:48:43;;;;;;;8.27;6.90;;;256.20;2252.80;;;;;;5065299;28;20094;-78
2021/10/10 03:51:09;;;;;;;10.27;6.07;;;256.20;2252.80;;;;;;5053606;28;20075;-77
2021/10/10 03:56:10;;;;;;;9.05;5.70;;;256.20;2252.80;;;;;;5070536;28;20070;-76
2021/10/10 03:58:38;;;;;;;10.60;7.18;;;256.20;2252.80;;;;;;5053517;28;20546;-77
2021/10/10 04:01:04;;;;;;;8.98;6.38;;;256.20;2252.80;;;;;;5071929;28;20127;-77
2021/10/10 04:03:29;;;;;;;10.05;5.80;;;256.20;2252.80;;;;;;5053678;28;20522;-78
2021/10/10 04:05:55;;;;;;;10.70;7.43;;;256.10;2252.80;;;;;;5071973;28;20035;-77
2021/10/10 04:08:21;;;;;;;16.23;6.43;;;256.20;2252.80;;;;;;5069633;28;20132;-78
2021/10/10 04:10:47;;;;;;;11.27;6.55;;;256.20;2252.80;;;;;;5053085;28;20039;-77
2021/10/10 04:13:12;;;;;;;9.57;6.85;;;256.20;2252.80;;;;;;5070641;28;20479;-77
2021/10/10 04:15:38;;;;;;;9.70;7.25;;;256.20;2252.80;;;;;;5049715;28;20096;-78
2021/10/10 04:18:05;;;;;;;8.02;6.25;;;256.20;2252.80;;;;;;5051384;28;20044;-77
2021/10/10 04:20:31;;;;;;;11.60;7.22;;;256.10;2252.80;;;;;;5051699;28;20449;-77
2021/10/10 04:22:57;;;;;;;10.50;6.78;;;256.10;2252.80;;;;;;5051710;28;20017;-77
2021/10/10 04:25:23;;;;;;;14.73;7.38;;;256.10;2252.80;;;;;;5057139;28;20388;-77
2021/10/10 04:27:49;;;;;;;12.75;7.00;;;256.10;2252.80;;;;;;5061276;28;20265;-77
2021/10/10 04:30:15;;;;;;;14.98;9.35;;;256.10;2252.80;;;;;;5061746;28;20040;-78
2021/10/10 04:32:42;;;;;;;15.35;8.55;;;256.10;2252.80;;;;;;5060217;28;20032;-76
2021/10/10 04:35:09;;;;;;;16.42;9.13;;;256.10;2252.80;;;;;;5060113;28;20031;-76
2021/10/10 04:37:34;;;;;;;11.55;8.00;;;256.20;2252.80;;;;;;5051495;28;20025;-76
2021/10/10 04:40:00;;;;;;;11.57;7.57;;;256.20;2252.80;;;;;;5050708;28;20361;-77
2021/10/10 04:42:26;;;;;;;13.02;7.65;;;256.20;2252.80;;;;;;5051086;28;20162;-76
2021/10/10 04:44:52;;;;;;;14.32;8.63;;;256.20;2252.80;;;;;;5054331;28;20496;-76
2021/10/10 04:47:19;;;;;;;11.77;8.30;;;256.20;2252.80;;;;;;5049582;28;20087;-75
2021/10/10 04:49:45;;;;;;;16.20;9.43;;;256.20;2252.80;;;;;;5051372;28;20464;-76
2021/10/10 04:52:11;;;;;;;13.63;9.07;;;256.20;2252.80;;;;;;5050636;28;20040;-76
2021/10/10 04:54:36;;;;;;;13.90;8.98;;;256.20;2252.80;;;;;;5053653;28;20049;-76
2021/10/10 04:57:02;;;;;;;17.95;10.30;;;256.20;2252.80;;;;;;5050589;28;20030;-76
2021/10/10 04:59:28;;;;;;;16.83;10.20;;;256.30;2252.80;;;;;;5050924;28;20033;-75
2021/10/10 05:01:53;;;;;;;17.00;9.50;;;256.20;2252.80;;;;;;5051996;28;20025;-76
2021/10/10 05:04:19;;;;;;;19.40;11.13;;;256.30;2252.80;;;;;;5051721;28;20116;-76
2021/10/10 05:06:45;;;;;;;14.82;9.63;;;256.20;2252.80;;;;;;5049944;28;20032;-76
2021/10/10 05:09:11;;;;;;;13.18;9.80;;;256.20;2252.80;;;;;;5051841;28;20079;-76
2021/10/10 05:11:36;;;;;;;18.60;11.05;;;256.20;2252.80;;;;;;5052363;28;20021;-76
2021/10/10 05:14:02;;;;;;;17.02;11.13;;;256.20;2252.80;;;;;;5054207;28;20480;-76
2021/10/10 05:16:28;;;;;;;18.23;11.88;;;256.20;2252.80;;;;;;5055331;28;20147;-75
2021/10/10 05:18:54;;;;;;;25.65;16.42;;;256.20;2252.80;;;;;;5053789;28;20142;-75
2021/10/10 05:21:19;;;;;;;23.40;18.27;;;256.20;2252.80;;;;;;5049274;28;20079;-75
2021/10/10 05:23:45;;;;;;;21.63;14.40;;;256.20;2252.80;;;;;;5055248;28;20493;-74
2021/10/10 05:26:12;;;;;;;18.50;13.05;;;256.20;2252.80;;;;;;5051150;28;20111;-74
2021/10/10 05:28:38;;;;;;;18.48;14.55;;;256.20;2252.80;;;;;;5054528;28;20021;-75
2021/10/10 05:31:03;;;;;;;22.48;15.68;;;256.20;2252.80;;;;;;5056891;28;20499;-75
2021/10/10 05:33:29;;;;;;;21.15;14.93;;;256.20;2252.80;;;;;;5053847;28;20387;-75
2021/10/10 05:35:55;;;;;;;19.80;14.80;;;256.20;2252.80;;;;;;5056298;28;20499;-74
2021/10/10 05:38:20;;;;;;;22.23;15.93;;;256.20;2252.80;;;;;;5053945;28;20025;-76
2021/10/10 05:40:46;;;;;;;27.58;18.30;;;256.20;2252.80;;;;;;5054308;28;20025;-74
2021/10/10 05:43:12;;;;;;;25.55;18.02;;;256.20;2252.80;;;;;;5053702;28;20037;-75
2021/10/10 05:45:38;;;;;;;24.40;17.95;;;256.30;2252.80;;;;;;5058259;28;20479;-75
2021/10/10 05:48:04;;;;;;;25.23;17.52;;;256.30;2252.80;;;;;;5055375;28;20029;-75
2021/10/10 05:50:30;;;;;;;20.35;15.35;;;256.30;2252.80;;;;;;5054840;28;20035;-75
2021/10/10 05:52:55;;;;;;;20.52;12.77;;;256.30;2252.80;;;;;;5055043;28;20104;-75
2021/10/10 05:55:23;;;;;;;19.13;11.77;;;256.30;2252.80;;;;;;5053821;28;20025;-75
2021/10/10 05:57:51;;;;;;;25.92;14.25;;;256.30;2252.80;;;;;;5052853;28;20985;-76
2021/10/10 06:00:18;;;;;;;27.77;18.48;;;256.40;2252.80;;;;;;5054852;28;20021;-76
2021/10/10 06:02:46;;;;;;;29.80;16.38;;;256.40;2252.80;;;;;;5055207;28;20028;-74
2021/10/10 06:05:13;;;;;;;17.33;11.38;;;256.40;2252.80;;;;;;5054714;28;20139;-75
2021/10/10 06:07:39;;;;;;;18.42;9.32;;;256.40;2252.80;;;;;;5053420;28;20025;-74
2021/10/10 06:10:07;;;;;;;11.85;8.80;;;256.40;2252.80;;;;;;5053815;28;20040;-74
2021/10/10 06:12:35;;;;;;;19.10;11.23;;;256.50;2252.80;;;;;;5069257;28;20037;-75
2021/10/10 06:15:01;;;;;;;20.23;11.63;;;256.50;2252.80;;;;;;5056001;28;20024;-75
2021/10/10 06:17:28;;;;;;;17.05;11.55;;;256.60;2252.80;;;;;;5055594;28;20031;-75
2021/10/10 06:19:54;;;;;;;16.35;10.55;;;256.60;2252.80;;;;;;5074798;28;20021;-75
2021/10/10 06:22:21;;;;;;;15.05;10.50;;;256.70;2252.80;;;;;;5056309;28;20048;-75
2021/10/10 06:24:47;;;;;;;17.95;10.30;;;256.80;2252.80;;;;;;5075479;28;20017;-75
2021/10/10 06:27:12;;;;;;;23.92;13.98;;;256.80;2252.80;;;;;;5059042;28;20032;-76
2021/10/10 06:29:38;;;;;;;20.83;17.58;;;256.80;2252.80;;;;;;5065520;28;20415;-74
2021/10/10 06:32:04;;;;;;;20.23;13.43;;;256.90;2252.80;;;;;;5054265;28;20045;-75
2021/10/10 06:34:30;;;;;;;18.00;10.18;;;256.90;2252.80;;;;;;5073343;28;20108;-75
2021/10/10 06:36:55;;;;;;;20.08;9.63;;;281.60;2278.40;;;;;;5054713;28;20082;-75
2021/10/10 06:39:21;;;;;;;15.52;9.90;;;281.70;2278.40;;;;;;5055154;28;20024;-76
2021/10/10 06:41:50;;;;;;;12.70;8.90;;;281.70;2278.40;;;;;;5085610;28;20130;-75
2021/10/10 06:44:15;;;;;;;16.20;10.43;;;281.70;2278.40;;;;;;5073195;28;20024;-76
2021/10/10 06:46:41;;;;;;;26.63;12.32;;;281.80;2278.40;;;;;;5083895;28;20068;-77
2021/10/10 06:49:07;;;;;;;36.70;22.33;;;281.90;2278.40;;;;;;5083726;28;20036;-78
2021/10/10 06:51:33;;;;;;;22.65;14.55;;;281.90;2278.40;;;;;;5070962;28;20029;-76
2021/10/10 06:53:58;;;;;;;23.80;12.90;;;282.00;2278.40;;;;;;5054963;28;20479;-75
2021/10/10 06:56:24;;;;;;;17.15;11.88;;;282.00;2278.40;;;;;;5075488;28;20043;-76
2021/10/10 06:58:50;;;;;;;18.95;11.02;;;282.10;2278.40;;;;;;5069663;28;20118;-76
2021/10/10 07:01:16;;;;;;;20.48;11.07;;;282.10;2278.40;;;;;;5070244;28;20070;-75
2021/10/10 07:03:42;;;;;;;13.68;9.25;;;282.10;2278.40;;;;;;5079526;28;20020;-75
2021/10/10 07:06:09;;;;;;;17.70;9.45;;;282.00;2278.40;;;;;;5071884;28;20032;-75
2021/10/10 07:08:35;;;;;;;25.83;9.57;;;282.00;2278.40;;;;;;5090150;28;20024;-76
2021/10/10 07:11:00;;;;;;;16.98;7.82;;;282.10;2278.40;;;;;;5084460;28;20031;-75
2021/10/10 07:13:26;;;;;;;16.15;7.88;;;282.00;2278.40;;;;;;5085048;28;20442;-75
2021/10/10 07:15:55;;;;;;;18.70;9.02;;;282.10;2278.40;;;;;;5062211;28;20534;-76
2021/10/10 07:18:27;;;;;;;15.50;8.20;;;282.10;2278.40;;;;;;5055894;28;20028;-76
2021/10/10 07:21:06;;;;;;;17.17;9.65;;;282.10;2278.40;;;;;;5052852;28;20857;-75
2021/10/10 07:26:10;;;;;;;24.27;12.57;;;282.20;2278.40;;;;;;5086286;28;20042;-75
2021/10/10 07:28:35;;;;;;;23.92;13.35;;;282.20;2278.40;;;;;;5072659;28;20538;-75
2021/10/10 07:31:02;;;;;;;36.00;17.60;;;282.10;2278.40;;;;;;5072029;28;20024;-77
2021/10/10 07:33:28;;;;;;;32.95;16.65;;;282.30;2278.40;;;;;;5067639;28;20111;-74
2021/10/10 07:35:54;;;;;;;23.00;11.30;;;282.40;2278.40;;;;;;5054117;28;20111;-77
2021/10/10 07:38:19;;;;;;;22.17;11.65;;;282.40;2278.40;;;;;;5053238;28;20427;-77
2021/10/10 07:40:45;;;;;;;25.50;12.65;;;282.50;2278.40;;;;;;5053948;28;20502;-79
2021/10/10 07:43:11;;;;;;;29.65;12.95;;;282.50;2278.40;;;;;;5064578;28;20066;-76
2021/10/10 07:45:42;;;;;;;37.63;14.70;;;282.50;2278.40;;;;;;5064501;28;20119;-78
2021/10/10 07:48:08;;;;;;;17.77;10.90;;;307.20;2304.00;;;;;;5054152;28;20059;-77
2021/10/10 07:50:34;;;;;;;21.40;11.13;;;307.30;2304.00;;;;;;5074345;28;20391;-79
2021/10/10 07:53:00;;;;;;;32.25;13.02;;;307.40;2304.00;;;;;;5077045;28;20035;-77
2021/10/10 07:55:25;;;;;;;24.52;12.32;;;307.50;2304.00;;;;;;5072847;28;20029;-77
2021/10/10 07:57:51;;;;;;;34.78;14.75;;;307.70;2304.00;;;;;;5074349;28;20028;-78
2021/10/10 08:00:17;;;;;;;26.10;13.43;;;307.70;2304.00;;;;;;5052635;28;20033;-79
2021/10/10 08:02:54;;;;;;;22.77;12.70;;;307.80;2304.00;;;;;;5071764;28;20023;-79
2021/10/10 08:05:21;;;;;;;16.40;10.77;;;307.80;2304.00;;;;;;5070023;28;20032;-79
2021/10/10 08:07:48;;;;;;;12.85;8.68;;;307.90;2304.00;;;;;;5052906;28;20016;-79
2021/10/10 08:10:14;;;;;;;16.50;9.20;;;307.90;2304.00;;;;;;5068262;28;20016;-78
2021/10/10 08:12:39;;;;;;;19.13;11.73;;;307.90;2304.00;;;;;;5069616;28;20035;-79
2021/10/10 08:15:06;;;;;;;23.45;10.82;;;308.00;2304.00;;;;;;5053365;28;20025;-77
2021/10/10 08:17:32;;;;;;;22.90;11.52;;;308.00;2304.00;;;;;;5074904;28;20040;-76
2021/10/10 08:19:58;;;;;;;20.20;10.68;;;308.00;2304.00;;;;;;5052913;28;20032;-78
2021/10/10 08:22:24;;;;;;;46.45;20.67;;;308.10;2304.00;;;;;;5053037;28;20036;-77
2021/10/10 08:24:50;;;;;;;31.00;15.50;;;332.80;2329.60;;;;;;5062718;28;20029;-77
2021/10/10 08:27:15;;;;;;;20.65;11.35;;;332.90;2329.60;;;;;;5072687;28;20055;-78
2021/10/10 08:29:41;;;;;;;20.48;12.27;;;332.80;2329.60;;;;;;5061408;28;20074;-76
2021/10/10 08:32:07;;;;;;;19.80;11.85;;;332.90;2329.60;;;;;;5061403;28;20036;-75
2021/10/10 08:34:36;;;;;;;20.10;13.07;;;332.90;2329.60;;;;;;5070799;28;20391;-75
2021/10/10 08:37:03;;;;;;;26.63;16.20;;;332.80;2329.60;;;;;;5071055;28;20386;-76
2021/10/10 08:39:28;;;;;;;28.67;15.77;;;332.80;2329.60;;;;;;5053135;28;20025;-76
2021/10/10 08:41:58;;;;;;;24.98;17.48;;;332.90;2329.60;;;;;;5076151;28;20040;-77
2021/10/10 08:44:32;;;;;;;31.58;15.75;;;332.90;2329.60;;;;;;5054911;28;20024;-76
2021/10/10 08:47:05;;;;;;;27.77;17.67;;;332.90;2329.60;;;;;;5071314;28;20024;-76
2021/10/10 08:49:31;;;;;;;27.95;16.73;;;332.90;2329.60;;;;;;5054139;28;20087;-77
2021/10/10 08:52:01;;;;;;;26.33;15.90;;;332.90;2329.60;;;;;;5053042;28;20495;-77
2021/10/10 08:54:27;;;;;;;33.50;16.42;;;332.80;2329.60;;;;;;5065320;28;20028;-78
2021/10/10 08:56:53;;;;;;;23.38;13.65;;;332.80;2329.60;;;;;;5051813;28;20032;-76
2021/10/10 08:59:22;;;;;;;25.90;16.20;;;308.10;2304.00;;;;;;5052702;28;20472;-76
2021/10/10 09:01:50;;;;;;;26.25;14.30;;;308.00;2304.00;;;;;;5057997;28;20032;-76
2021/10/10 09:04:16;;;;;;;33.67;19.83;;;307.90;2304.00;;;;;;5074174;28;20045;-77
2021/10/10 09:06:41;;;;;;;34.38;21.50;;;308.00;2304.00;;;;;;5074962;28;20082;-76
2021/10/10 09:09:32;;;;;;;43.85;23.75;;;308.00;2304.00;;;;;;5066617;28;20063;-75
2021/10/10 09:12:05;;;;;;;33.53;20.05;;;308.10;2304.00;;;;;;5074253;28;20048;-77
2021/10/10 09:15:06;;;;;;;22.67;14.32;;;308.00;2304.00;;;;;;5074703;28;20048;-77
2021/10/10 09:17:32;;;;;;;25.90;14.48;;;308.00;2304.00;;;;;;5012111;28;20058;-76
2021/10/10 09:19:59;;;;;;;44.50;23.30;;;308.00;2304.00;;;;;;5014458;28;20100;-76
2021/10/10 09:22:26;;;;;;;22.85;13.10;;;307.90;2304.00;;;;;;5013248;28;20111;-77
2021/10/10 09:24:54;;;;;;;19.60;12.98;;;307.90;2304.00;;;;;;5019358;28;20590;-76
2021/10/10 09:27:22;;;;;;;15.13;10.55;;;307.90;2304.00;;;;;;5015925;28;20034;-76
2021/10/10 09:29:51;;;;;;;17.00;10.60;;;307.80;2304.00;;;;;;5012166;28;20068;-77
2021/10/10 09:32:26;;;;;;;16.60;9.27;;;307.70;2304.00;;;;;;5014033;28;20104;-76
2021/10/10 09:34:52;;;;;;;16.45;10.15;;;307.60;2304.00;;;;;;5023793;28;20044;-76
2021/10/10 09:37:22;;;;;;;17.27;11.73;;;307.60;2304.00;;;;;;5016539;28;20029;-76
2021/10/10 09:39:57;;;;;;;19.60;11.82;;;307.60;2304.00;;;;;;5024568;28;20034;-76
2021/10/10 09:42:45;;;;;;;16.42;11.55;;;307.70;2304.00;;;;;;5012719;28;20079;-76
2021/10/10 09:45:29;;;;;;;18.35;11.40;;;307.70;2304.00;;;;;;5012072;28;20050;-76
2021/10/10 09:48:02;;;;;;;20.30;14.75;;;307.60;2304.00;;;;;;5011281;28;20030;-76
2021/10/10 09:50:30;;;;;;;25.33;16.88;;;307.70;2304.00;;;;;;5013203;28;20021;-76
2021/10/10 09:53:12;;;;;;;23.95;17.75;;;307.70;2304.00;;;;;;5039340;28;20406;-77
2021/10/10 09:55:54;;;;;;;20.77;15.15;;;307.70;2304.00;;;;;;5062498;28;20064;-78
2021/10/10 09:58:38;;;;;;;21.50;14.48;;;307.70;2304.00;;;;;;5072238;28;20047;-78
2021/10/10 10:01:37;;;;;;;33.42;23.48;;;307.70;2304.00;;;;;;5055464;28;20036;-79
2021/10/10 10:04:11;;;;;;;44.50;30.05;;;307.80;2304.00;;;;;;5072792;28;20029;-81
2021/10/10 10:06:38;;;;;;;50.20;33.13;;;307.80;2304.00;;;;;;5055946;28;20070;-78
2021/10/10 10:09:07;;;;;;;37.00;24.92;;;307.80;2304.00;;;;;;5073138;28;20025;-79
2021/10/10 10:11:38;;;;;;;28.33;16.58;;;307.90;2304.00;;;;;;5072945;28;20020;-78
2021/10/10 10:14:10;;;;;;;27.75;16.85;;;307.90;2304.00;;;;;;5070115;28;20055;-78
2021/10/10 10:16:41;;;;;;;28.15;15.70;;;307.90;2304.00;;;;;;5072876;28;20123;-77
2021/10/10 10:19:11;;;;;;;25.45;15.05;;;307.90;2304.00;;;;;;5074142;28;20021;-78
2021/10/10 10:21:38;;;;;;;21.25;10.90;;;308.00;2304.00;;;;;;5072924;28;20479;-79
2021/10/10 10:24:09;;;;;;;17.27;10.45;;;308.00;2304.00;;;;;;5054488;28;20480;-77
2021/10/10 10:26:35;;;;;;;17.05;9.80;;;308.00;2304.00;;;;;;5072560;28;20032;-79
2021/10/10 10:29:11;;;;;;;15.77;11.43;;;308.10;2304.00;;;;;;5055373;28;20029;-77
2021/10/10 10:31:37;;;;;;;21.70;13.82;;;332.80;2329.60;;;;;;5071514;28;20028;-79
2021/10/10 10:34:27;;;;;;;23.42;13.02;;;333.00;2329.60;;;;;;5062951;28;20398;-77
2021/10/10 10:36:59;;;;;;;23.13;13.35;;;333.10;2329.60;;;;;;5054891;28;20031;-76
2021/10/10 10:39:33;;;;;;;18.48;13.48;;;333.30;2329.60;;;;;;5074271;28;20418;-77
2021/10/10 10:41:59;;;;;;;22.48;12.13;;;333.40;2329.60;;;;;;5072556;28;20040;-76
2021/10/10 10:44:35;;;;;;;22.23;13.73;;;333.50;2329.60;;;;;;5076643;28;20550;-76
2021/10/10 10:47:07;;;;;;;25.95;14.32;;;333.60;2329.60;;;;;;5052912;28;20056;-78
2021/10/10 10:49:45;;;;;;;18.73;12.07;;;333.70;2329.60;;;;;;5069732;28;20037;-77
2021/10/10 10:52:28;;;;;;;22.08;11.70;;;333.60;2329.60;;;;;;5056714;28;20046;-76
2021/10/10 10:55:19;;;;;;;20.55;13.82;;;333.60;2329.60;;;;;;5070701;28;20048;-78
2021/10/10 10:58:00;;;;;;;19.13;12.15;;;333.60;2329.60;;;;;;5072137;28;20025;-74
2021/10/10 11:00:46;;;;;;;17.73;11.73;;;333.60;2329.60;;;;;;5055529;28;20128;-75
2021/10/10 11:03:18;;;;;;;19.30;13.30;;;333.70;2329.60;;;;;;5054383;28;20487;-75
2021/10/10 11:05:56;;;;;;;32.97;20.90;;;333.70;2329.60;;;;;;5063509;28;20094;-76
2021/10/10 11:08:22;;;;;;;27.98;18.52;;;358.40;2329.60;;;;;;5053923;28;20150;-75
2021/10/10 11:11:03;;;;;;;21.52;14.85;;;358.50;2329.60;;;;;;5063693;28;20171;-74
2021/10/10 11:13:34;;;;;;;20.83;14.23;;;358.40;2329.60;;;;;;5053489;28;20033;-75
2021/10/10 11:16:20;;;;;;;24.98;15.15;;;358.40;2329.60;;;;;;5053039;28;20063;-74
2021/10/10 11:18:54;;;;;;;23.85;14.80;;;358.40;2329.60;;;;;;5053575;28;20087;-74
2021/10/10 11:21:26;;;;;;;27.65;15.32;;;358.40;2329.60;;;;;;5073900;28;20790;-74
2021/10/10 11:23:58;;;;;;;19.55;13.40;;;358.40;2329.60;;;;;;5070599;28;20096;-75
2021/10/10 11:26:24;;;;;;;21.55;14.30;;;358.50;2329.60;;;;;;5072540;28;20021;-75
2021/10/10 11:28:53;;;;;;;21.35;13.65;;;358.50;2329.60;;;;;;5054047;28;20032;-74
2021/10/10 11:31:28;;;;;;;23.73;13.85;;;358.40;2329.60;;;;;;5053570;28;20036;-75
2021/10/10 11:34:00;;;;;;;21.77;14.65;;;358.40;2329.60;;;;;;5053091;28;20024;-74
2021/10/10 11:36:37;;;;;;;18.13;11.80;;;358.50;2329.60;;;;;;5069676;28;20032;-75
2021/10/10 11:39:08;;;;;;;22.63;12.98;;;358.40;2329.60;;;;;;5053088;28;20071;-74
2021/10/10 11:41:38;;;;;;;22.17;14.45;;;358.50;2329.60;;;;;;5069166;28;20031;-74
2021/10/10 11:44:07;;;;;;;19.40;10.75;;;358.70;2329.60;;;;;;5068991;28;20025;-75
2021/10/10 11:46:41;;;;;;;30.73;15.70;;;358.70;2329.60;;;;;;5069617;28;20036;-74
2021/10/10 11:49:38;;;;;;;24.20;12.57;;;358.90;2329.60;;;;;;5057649;28;20060;-74
2021/10/10 11:52:24;;;;;;;20.20;12.32;;;358.80;2329.60;;;;;;5052154;28;20017;-75
2021/10/10 11:55:03;;;;;;;23.02;12.75;;;358.90;2329.60;;;;;;5051504;28;20026;-74
2021/10/10 11:57:31;;;;;;;20.65;13.48;;;359.00;2329.60;;;;;;5068881;28;20052;-75
2021/10/10 12:00:01;;;;;;;20.67;11.98;;;359.10;2329.60;;;;;;5073292;28;20103;-76
2021/10/10 12:02:47;;;;;;;16.70;10.35;;;359.10;2329.60;;;;;;5066736;28;20044;-75
2021/10/10 12:05:18;;;;;;;13.57;9.10;;;359.00;2329.60;;;;;;5054756;28;20507;-75
2021/10/10 12:07:45;;;;;;;15.63;11.35;;;359.10;2329.60;;;;;;5070585;28;20101;-75
2021/10/10 12:10:16;;;;;;;16.65;9.10;;;359.00;2329.60;;;;;;5066381;28;20021;-74
2021/10/10 12:12:42;;;;;;;16.45;8.45;;;359.00;2329.60;;;;;;5060347;28;20082;-74
2021/10/10 12:15:09;;;;;;;16.92;8.70;;;358.90;2329.60;;;;;;5050724;28;20028;-74